Time;durP1;ratioP1;P1;durP2;ratioP2;P2;SDS_P1;SDS_P2;PMS_P1;PMS_P2;Temp;Humidity;BMP_temperature;BMP_pressure;BME280_temperature;BME280_humidity;BME280_pressure;Samples;Min_cycle;Max_cycle;Signal;HPM_P1;HPM_P2
2023/11/06 00:03:22;;;;;;;4.30;2.60;;;;;;;15.49;100.00;97476.29;101315;1295;615203;-61
2023/11/06 00:05:49;;;;;;;2.70;2.50;;;;;;;15.96;100.00;97471.73;105349;1265;62024;-62
2023/11/06 00:08:16;;;;;;;6.50;2.40;;;;;;;15.93;100.00;97478.16;106602;1265;59675;-62
2023/11/06 00:10:43;;;;;;;3.50;2.60;;;;;;;15.89;100.00;97472.89;104012;1267;72287;-62
2023/11/06 00:13:10;;;;;;;3.20;2.50;;;;;;;15.84;100.00;97469.23;104336;1265;69231;-62
2023/11/06 00:15:37;;;;;;;2.80;2.60;;;;;;;15.78;100.00;97469.94;103627;1283;225116;-65
2023/11/06 00:18:04;;;;;;;5.00;2.70;;;;;;;15.78;100.00;97473.36;104332;1263;62695;-61
2023/11/06 00:20:32;;;;;;;5.60;2.70;;;;;;;15.78;100.00;97471.92;104278;1262;60783;-63
2023/11/06 00:22:59;;;;;;;3.00;2.50;;;;;;;15.75;100.00;97472.33;104225;1266;71931;-67
2023/11/06 00:25:25;;;;;;;3.70;2.70;;;;;;;15.69;100.00;97472.60;103921;1275;70259;-63
2023/11/06 00:27:53;;;;;;;3.40;2.60;;;;;;;15.68;100.00;97474.98;104368;1263;73064;-61
2023/11/06 00:30:20;;;;;;;3.20;2.50;;;;;;;15.65;100.00;97478.33;104136;1262;61673;-61
2023/11/06 00:32:46;;;;;;;3.40;2.30;;;;;;;15.67;100.00;97478.77;103864;1280;59942;-62
2023/11/06 00:35:13;;;;;;;3.30;2.40;;;;;;;15.64;100.00;97479.27;104276;1272;72811;-61
2023/11/06 00:37:40;;;;;;;5.50;2.60;;;;;;;15.59;100.00;97478.52;104085;1266;69745;-61
2023/11/06 00:40:09;;;;;;;2.60;2.40;;;;;;;15.62;100.00;97479.44;104298;1257;73059;-64
2023/11/06 00:42:36;;;;;;;2.80;2.50;;;;;;;15.62;100.00;97480.55;104260;1256;61571;-65
2023/11/06 00:45:04;;;;;;;3.50;2.30;;;;;;;15.57;100.00;97475.65;104374;1272;59322;-62
2023/11/06 00:47:30;;;;;;;3.40;2.50;;;;;;;15.55;100.00;97475.67;104406;1256;73387;-68
2023/11/06 00:49:57;;;;;;;3.50;2.50;;;;;;;15.51;100.00;97480.10;104381;1257;69828;-68
2023/11/06 00:52:24;;;;;;;5.10;2.80;;;;;;;15.50;100.00;97478.65;104217;1256;72968;-67
2023/11/06 00:54:51;;;;;;;3.90;2.60;;;;;;;15.55;100.00;97480.30;104095;1259;61659;-67
2023/11/06 00:57:18;;;;;;;3.90;2.70;;;;;;;15.56;100.00;97480.59;104291;1256;59741;-67
2023/11/06 00:59:45;;;;;;;3.20;2.50;;;;;;;15.60;100.00;97484.27;104313;1261;73683;-67
2023/11/06 01:02:12;;;;;;;3.60;2.20;;;;;;;15.62;100.00;97487.80;104350;1257;68606;-67
2023/11/06 01:04:39;;;;;;;2.50;2.30;;;;;;;15.60;100.00;97493.09;104204;1257;73217;-68
2023/11/06 01:07:06;;;;;;;3.70;2.40;;;;;;;15.60;100.00;97491.13;107842;1256;61738;-67
2023/11/06 01:09:32;;;;;;;3.00;2.50;;;;;;;15.63;100.00;97497.56;106603;1256;59853;-66
2023/11/06 01:11:59;;;;;;;6.50;2.30;;;;;;;15.66;100.00;97501.29;104363;1260;72739;-66
2023/11/06 01:14:26;;;;;;;3.30;2.60;;;;;;;15.60;100.00;97497.15;104444;1256;69500;-66
2023/11/06 01:16:53;;;;;;;3.00;2.30;;;;;;;15.59;100.00;97497.05;104381;1256;72814;-64
2023/11/06 01:19:20;;;;;;;3.80;2.40;;;;;;;15.60;100.00;97499.63;104438;1256;61841;-64
2023/11/06 01:21:47;;;;;;;3.50;2.30;;;;;;;15.60;100.00;97506.16;104581;1256;59770;-64
2023/11/06 01:24:14;;;;;;;3.00;2.30;;;;;;;15.56;100.00;97511.61;104165;1268;73248;-65
2023/11/06 01:26:42;;;;;;;2.70;2.40;;;;;;;15.53;100.00;97522.20;104277;1266;69528;-65
2023/11/06 01:29:11;;;;;;;2.90;2.20;;;;;;;15.49;100.00;97527.85;104320;1259;72588;-64
2023/11/06 01:31:38;;;;;;;4.20;2.70;;;;;;;15.48;100.00;97531.69;107568;1251;62044;-65
2023/11/06 01:34:05;;;;;;;2.80;2.20;;;;;;;15.45;100.00;97535.06;106858;1252;60126;-64
2023/11/06 01:36:33;;;;;;;2.40;2.00;;;;;;;15.43;100.00;97536.39;104730;1253;72311;-64
2023/11/06 01:39:00;;;;;;;3.60;2.20;;;;;;;15.45;100.00;97534.39;104533;1253;68260;-64
2023/11/06 01:41:27;;;;;;;;;;;;;;;15.46;100.00;97540.36;104420;1257;72995;-64
2023/11/06 01:43:54;;;;;;;5.60;2.60;;;;;;;15.45;100.00;97535.48;104776;1267;61713;-64
2023/11/06 01:46:21;;;;;;;3.30;2.50;;;;;;;15.46;100.00;97541.02;104469;1264;59903;-64
2023/11/06 01:48:48;;;;;;;2.70;2.20;;;;;;;15.48;100.00;97544.01;104458;1256;71932;-64
2023/11/06 01:51:15;;;;;;;3.30;2.50;;;;;;;15.42;100.00;97540.88;104328;1256;69425;-64
2023/11/06 01:53:42;;;;;;;4.70;2.90;;;;;;;15.42;100.00;97544.48;104678;1257;72523;-64
2023/11/06 01:56:09;;;;;;;2.80;2.50;;;;;;;15.40;100.00;97550.44;104569;1262;60657;-64
2023/11/06 01:58:36;;;;;;;2.20;1.90;;;;;;;15.40;100.00;97554.10;104435;1252;59847;-64
2023/11/06 02:01:05;;;;;;;2.80;2.50;;;;;;;15.42;100.00;97554.16;104468;1258;73256;-64
2023/11/06 02:03:34;;;;;;;2.50;2.30;;;;;;;15.38;100.00;97556.23;104399;1257;69666;-64
2023/11/06 02:06:03;;;;;;;6.50;2.40;;;;;;;15.33;100.00;97564.84;104403;1256;72748;-64
2023/11/06 02:08:32;;;;;;;2.90;2.60;;;;;;;15.32;100.00;97565.69;108242;1251;61514;-65
2023/11/06 02:11:02;;;;;;;3.70;3.30;;;;;;;15.33;100.00;97567.38;105828;1251;60197;-64
2023/11/06 02:13:30;;;;;;;3.30;3.10;;;;;;;15.30;100.00;97562.35;104598;1255;73807;-64
2023/11/06 02:15:56;;;;;;;5.50;2.60;;;;;;;15.29;100.00;97566.11;104577;1256;69852;-64
2023/11/06 02:18:25;;;;;;;4.40;2.20;;;;;;;15.29;100.00;97567.76;104435;1254;72523;-63
2023/11/06 02:20:55;;;;;;;5.00;2.40;;;;;;;15.27;100.00;97575.01;104499;1253;61857;-65
2023/11/06 02:23:25;;;;;;;4.10;2.50;;;;;;;15.22;100.00;97585.11;104332;1268;59938;-64
2023/11/06 02:25:52;;;;;;;4.50;2.40;;;;;;;15.17;100.00;97593.25;104329;1255;72828;-64
2023/11/06 02:28:19;;;;;;;2.90;2.60;;;;;;;15.10;100.00;97602.11;104417;1257;69062;-64
2023/11/06 02:30:51;;;;;;;4.60;2.60;;;;;;;15.09;100.00;97609.63;104284;1256;72858;-65
2023/11/06 02:33:19;;;;;;;3.80;2.80;;;;;;;15.04;100.00;97613.50;104413;1267;61481;-65
2023/11/06 02:35:47;;;;;;;4.10;2.50;;;;;;;14.98;100.00;97622.63;104316;1257;59935;-65
2023/11/06 02:38:14;;;;;;;;;;;;;;;14.94;100.00;97622.13;104512;1257;72756;-65
2023/11/06 02:40:41;;;;;;;2.80;2.40;;;;;;;14.93;100.00;97619.83;104356;1255;68824;-65
2023/11/06 02:43:08;;;;;;;3.20;2.70;;;;;;;14.92;100.00;97618.60;104394;1256;73074;-65
2023/11/06 02:45:35;;;;;;;3.50;2.70;;;;;;;14.92;100.00;97617.23;104345;1253;61748;-64
2023/11/06 02:48:01;;;;;;;4.80;3.00;;;;;;;14.84;100.00;97614.61;104369;1265;60121;-65
2023/11/06 02:50:30;;;;;;;3.20;2.90;;;;;;;14.75;100.00;97617.35;104396;1258;73306;-64
2023/11/06 02:52:58;;;;;;;3.10;2.80;;;;;;;14.66;100.00;97624.17;104428;1253;70333;-65
2023/11/06 02:55:25;;;;;;;;;;;;;;;14.57;100.00;97633.60;104253;1264;72193;-64
2023/11/06 02:57:52;;;;;;;4.20;3.10;;;;;;;14.50;100.00;97635.85;104348;1256;61846;-65
2023/11/06 03:00:20;;;;;;;3.40;3.00;;;;;;;14.42;100.00;97642.54;104330;1252;59778;-63
2023/11/06 03:02:47;;;;;;;4.30;2.90;;;;;;;14.41;100.00;97647.45;104291;1267;73346;-65
2023/11/06 03:05:14;;;;;;;3.00;2.80;;;;;;;14.32;100.00;97651.79;104404;1255;70348;-64
2023/11/06 03:07:42;;;;;;;6.50;3.10;;;;;;;14.27;100.00;97652.90;106928;1251;72475;-64
2023/11/06 03:10:10;;;;;;;8.70;3.00;;;;;;;14.31;100.00;97655.20;108378;1252;60385;-64
2023/11/06 03:12:37;;;;;;;5.90;2.70;;;;;;;14.30;100.00;97661.44;108503;1252;60800;-64
2023/11/06 03:15:05;;;;;;;3.40;2.70;;;;;;;14.26;100.00;97664.30;107070;1255;73487;-64
2023/11/06 03:17:32;;;;;;;4.90;2.80;;;;;;;14.20;100.00;97669.74;108466;1252;69308;-65
2023/11/06 03:19:59;;;;;;;3.90;3.40;;;;;;;14.24;100.00;97674.37;108427;1252;72368;-66
2023/11/06 03:22:25;;;;;;;3.00;2.70;;;;;;;14.30;100.00;97678.55;105953;1252;61688;-63
2023/11/06 03:24:53;;;;;;;3.90;2.70;;;;;;;14.33;100.00;97686.39;104665;1258;60126;-63
2023/11/06 03:27:20;;;;;;;2.60;2.10;;;;;;;14.33;100.00;97684.56;104412;1267;72833;-63
2023/11/06 03:29:47;;;;;;;2.80;2.50;;;;;;;14.35;100.00;97684.59;104449;1253;69043;-63
2023/11/06 03:32:14;;;;;;;2.80;2.60;;;;;;;14.35;100.00;97690.59;104311;1256;72249;-64
2023/11/06 03:34:44;;;;;;;3.00;2.60;;;;;;;14.30;100.00;97695.41;108483;1251;62048;-65
2023/11/06 03:37:11;;;;;;;2.90;2.50;;;;;;;14.32;100.00;97691.27;107268;1251;60319;-64
2023/11/06 03:39:38;;;;;;;2.90;2.70;;;;;;;14.28;100.00;97693.70;104743;1252;72487;-65
2023/11/06 03:42:05;;;;;;;4.70;2.80;;;;;;;14.25;100.00;97694.66;104657;1253;68415;-64
2023/11/06 03:44:32;;;;;;;2.80;2.60;;;;;;;14.27;100.00;97691.17;104651;1253;72393;-65
2023/11/06 03:46:59;;;;;;;3.60;2.60;;;;;;;14.20;100.00;97700.73;104697;1267;60874;-64
2023/11/06 03:49:27;;;;;;;4.00;2.80;;;;;;;14.15;100.00;97703.14;104460;1256;59880;-64
2023/11/06 03:51:53;;;;;;;4.10;2.50;;;;;;;14.14;100.00;97711.48;104327;1257;73644;-64
2023/11/06 03:54:20;;;;;;;8.40;2.90;;;;;;;14.12;100.00;97713.41;104328;1260;69918;-63
2023/11/06 03:56:47;;;;;;;3.00;2.80;;;;;;;14.07;100.00;97718.25;104805;1255;72283;-64
2023/11/06 03:59:14;;;;;;;3.60;3.00;;;;;;;14.03;100.00;97720.18;104462;1252;62077;-62
2023/11/06 04:01:40;;;;;;;4.00;3.20;;;;;;;14.04;100.00;97729.30;104345;1256;59618;-62
2023/11/06 04:04:07;;;;;;;4.90;2.90;;;;;;;14.02;100.00;97729.98;104461;1254;72987;-64
2023/11/06 04:06:34;;;;;;;3.60;3.00;;;;;;;13.96;100.00;97735.27;104429;1255;69436;-64
2023/11/06 04:09:02;;;;;;;3.20;2.90;;;;;;;13.94;100.00;97734.04;108520;1251;72607;-64
2023/11/06 04:11:28;;;;;;;3.50;2.70;;;;;;;13.95;100.00;97745.36;106862;1253;60802;-64
2023/11/06 04:13:56;;;;;;;3.00;2.80;;;;;;;13.93;100.00;97745.36;105117;1255;60531;-64
2023/11/06 04:16:23;;;;;;;3.90;2.50;;;;;;;13.93;100.00;97749.61;105095;1252;74100;-64
2023/11/06 04:18:50;;;;;;;4.90;2.70;;;;;;;13.86;100.00;97749.83;105087;1255;69332;-65
2023/11/06 04:21:17;;;;;;;3.00;2.70;;;;;;;13.85;100.00;97754.59;104660;1254;73367;-63
2023/11/06 04:23:43;;;;;;;2.60;2.40;;;;;;;13.86;100.00;97761.34;104436;1266;61193;-63
2023/11/06 04:26:10;;;;;;;2.40;2.20;;;;;;;13.84;100.00;97765.52;104540;1262;60764;-63
2023/11/06 04:28:38;;;;;;;2.90;2.60;;;;;;;13.82;100.00;97771.16;104441;1254;73792;-64
2023/11/06 04:31:05;;;;;;;2.90;2.20;;;;;;;13.81;100.00;97781.23;104429;1255;69394;-64
2023/11/06 04:33:32;;;;;;;3.40;2.60;;;;;;;13.77;100.00;97794.30;104383;1268;71950;-65
2023/11/06 04:35:59;;;;;;;2.70;2.50;;;;;;;13.68;100.00;97795.22;104535;1267;61753;-63
2023/11/06 04:38:26;;;;;;;2.90;2.20;;;;;;;13.65;100.00;97799.05;104398;1252;60526;-63
2023/11/06 04:40:52;;;;;;;4.90;2.60;;;;;;;13.60;100.00;97795.00;104741;1254;74557;-62
2023/11/06 04:43:19;;;;;;;2.60;2.40;;;;;;;13.54;100.00;97800.08;104460;1262;59372;-64
2023/11/06 04:45:46;;;;;;;3.80;2.30;;;;;;;13.54;100.00;97801.67;104582;1254;72919;-63
2023/11/06 04:48:13;;;;;;;2.40;2.20;;;;;;;13.53;100.00;97804.62;104423;1267;61872;-62
2023/11/06 04:50:40;;;;;;;2.30;2.20;;;;;;;13.49;100.00;97807.73;104600;1256;60934;-65
2023/11/06 04:53:07;;;;;;;2.70;2.50;;;;;;;13.47;100.00;97813.23;104405;1255;72388;-64
2023/11/06 04:55:33;;;;;;;2.30;2.00;;;;;;;13.45;100.00;97821.27;104439;1266;69686;-63
2023/11/06 04:58:00;;;;;;;2.90;2.10;;;;;;;13.44;100.00;97827.15;104375;1256;73141;-62
2023/11/06 05:00:27;;;;;;;1.90;1.80;;;;;;;13.43;100.00;97829.87;104401;1262;61539;-62
2023/11/06 05:02:54;;;;;;;2.30;2.10;;;;;;;13.44;100.00;97831.91;104479;1253;60546;-63
2023/11/06 05:05:21;;;;;;;3.20;2.20;;;;;;;13.46;100.00;97832.66;104609;1253;73704;-65
2023/11/06 05:07:48;;;;;;;;;;;;;;;13.43;100.00;97833.90;104396;1255;70272;-64
2023/11/06 05:10:15;;;;;;;3.90;2.10;;;;;;;13.42;100.00;97839.65;105405;1251;60470;-66
2023/11/06 05:12:42;;;;;;;2.50;2.30;;;;;;;13.42;100.00;97848.98;105967;1251;61467;-64
2023/11/06 05:15:09;;;;;;;1.90;1.80;;;;;;;13.43;100.00;97855.20;105265;1256;60330;-64
2023/11/06 05:17:36;;;;;;;2.10;1.90;;;;;;;13.42;100.00;97862.52;104716;1252;74094;-66
2023/11/06 05:20:04;;;;;;;2.00;1.90;;;;;;;13.40;100.00;97864.29;105216;1256;69924;-66
2023/11/06 05:22:31;;;;;;;2.20;1.90;;;;;;;13.36;100.00;97868.54;104972;1253;73232;-65
2023/11/06 05:24:59;;;;;;;2.10;1.90;;;;;;;13.31;100.00;97866.11;104633;1259;61892;-65
2023/11/06 05:27:26;;;;;;;1.80;1.70;;;;;;;13.30;100.00;97880.20;104466;1268;60556;-66
2023/11/06 05:29:53;;;;;;;1.90;1.80;;;;;;;13.36;100.00;97887.87;104468;1251;74585;-64
2023/11/06 05:32:20;;;;;;;1.70;1.60;;;;;;;13.38;100.00;97891.88;104728;1254;70188;-64
2023/11/06 05:34:47;;;;;;;2.90;1.80;;;;;;;13.37;100.00;97899.01;104569;1253;72816;-67
2023/11/06 05:37:14;;;;;;;3.20;1.80;;;;;;;13.39;100.00;97901.18;107724;1252;62262;-67
2023/11/06 05:39:45;;;;;;;1.90;1.80;;;;;;;13.38;100.00;97901.37;108562;1252;60290;-69
2023/11/06 05:42:12;;;;;;;2.80;1.90;;;;;;;13.40;100.00;97902.98;104565;1255;73767;-67
2023/11/06 05:44:42;;;;;;;2.70;1.80;;;;;;;13.51;100.00;97901.23;104739;1254;69461;-68
2023/11/06 05:47:08;;;;;;;3.90;1.90;;;;;;;13.56;100.00;97908.52;104793;1255;73966;-67
2023/11/06 05:49:36;;;;;;;4.00;1.80;;;;;;;13.57;100.00;97909.89;104467;1258;61842;-69
2023/11/06 05:52:04;;;;;;;;;;;;;;;13.59;100.00;97911.60;104667;1256;60565;-68
2023/11/06 05:54:31;;;;;;;2.10;1.90;;;;;;;13.62;100.00;97911.23;104407;1256;75400;-68
2023/11/06 05:56:58;;;;;;;2.70;1.90;;;;;;;13.64;100.00;97914.05;104401;1256;70174;-69
2023/11/06 05:59:25;;;;;;;3.30;2.40;;;;;;;13.64;100.00;97918.79;104447;1253;72981;-67
2023/11/06 06:01:52;;;;;;;2.40;2.20;;;;;;;13.67;100.00;97924.25;104437;1256;60842;-73
2023/11/06 06:04:20;;;;;;;2.30;2.00;;;;;;;13.68;100.00;97935.36;104468;1271;59444;-72
2023/11/06 06:06:50;;;;;;;5.10;1.80;;;;;;;13.72;100.00;97937.67;104473;1253;73925;-72
2023/11/06 06:09:17;;;;;;;3.10;1.90;;;;;;;13.79;100.00;97942.06;104698;1255;69343;-67
2023/11/06 06:11:45;;;;;;;3.30;2.00;;;;;;;13.83;100.00;97947.16;107917;1253;73058;-68
2023/11/06 06:14:12;;;;;;;;;;;;;;;13.89;100.00;97948.81;104461;1256;61533;-67
2023/11/06 06:16:39;;;;;;;3.80;2.40;;;;;;;13.94;100.00;97954.91;104342;1254;60560;-66
2023/11/06 06:19:07;;;;;;;1.90;1.80;;;;;;;13.95;100.00;97959.36;104567;1258;73738;-68
2023/11/06 06:21:34;;;;;;;2.30;1.80;;;;;;;13.99;100.00;97957.99;104585;1252;69954;-67
2023/11/06 06:24:00;;;;;;;3.80;1.80;;;;;;;14.01;100.00;97962.25;104649;1254;73050;-66
2023/11/06 06:26:29;;;;;;;1.90;1.80;;;;;;;14.03;100.00;97965.25;104318;1268;61790;-67
2023/11/06 06:28:56;;;;;;;2.70;2.10;;;;;;;14.09;100.00;97971.08;104466;1254;60546;-66
2023/11/06 06:31:23;;;;;;;1.70;1.60;;;;;;;14.14;100.00;97974.17;104400;1256;73424;-65
2023/11/06 06:33:49;;;;;;;3.20;1.90;;;;;;;14.18;100.00;97968.70;104522;1253;69534;-65
2023/11/06 06:36:17;;;;;;;1.90;1.80;;;;;;;14.25;100.00;97966.56;104323;1257;72912;-64
2023/11/06 06:38:43;;;;;;;1.80;1.70;;;;;;;14.31;100.00;97964.44;104571;1256;61900;-65
2023/11/06 06:41:10;;;;;;;2.00;1.70;;;;;;;14.41;100.00;97964.66;104274;1269;60007;-65
2023/11/06 06:43:37;;;;;;;1.70;1.50;;;;;;;14.46;100.00;97965.89;104326;1256;73557;-65
2023/11/06 06:46:05;;;;;;;1.60;1.50;;;;;;;14.46;100.00;97971.80;104437;1261;69229;-63
2023/11/06 06:48:32;;;;;;;2.50;1.70;;;;;;;14.53;100.00;97977.39;104284;1267;72307;-65
2023/11/06 06:50:59;;;;;;;1.90;1.80;;;;;;;14.57;100.00;97973.55;104537;1265;61929;-63
2023/11/06 06:53:26;;;;;;;2.90;1.50;;;;;;;14.63;100.00;97974.46;104397;1265;60557;-64
2023/11/06 06:55:53;;;;;;;3.40;1.60;;;;;;;14.72;100.00;97974.27;104320;1257;74154;-64
2023/11/06 06:58:21;;;;;;;2.00;1.40;;;;;;;14.79;100.00;97977.64;104332;1257;70123;-65
2023/11/06 07:00:49;;;;;;;2.90;1.30;;;;;;;14.85;100.00;97981.02;104300;1254;72855;-65
2023/11/06 07:03:16;;;;;;;1.60;1.50;;;;;;;14.91;100.00;97980.48;104296;1253;61541;-64
2023/11/06 07:05:43;;;;;;;1.60;1.40;;;;;;;14.98;100.00;97977.79;104405;1254;60566;-64
2023/11/06 07:08:10;;;;;;;1.10;1.00;;;;;;;15.05;100.00;97988.87;104386;1256;73689;-63
2023/11/06 07:10:37;;;;;;;1.60;1.10;;;;;;;15.11;100.00;97995.16;104374;1270;70213;-64
2023/11/06 07:13:05;;;;;;;4.30;1.40;;;;;;;15.14;100.00;97999.02;106801;1253;72787;-65
2023/11/06 07:15:32;;;;;;;1.50;1.20;;;;;;;15.20;100.00;98003.60;104696;1269;61875;-65
2023/11/06 07:18:01;;;;;;;1.00;1.00;;;;;;;15.26;100.00;98011.37;104623;1253;60440;-65
2023/11/06 07:20:29;;;;;;;2.20;1.20;;;;;;;15.31;100.00;98013.89;104938;1253;74608;-65
2023/11/06 07:22:57;;;;;;;;;;;;;;;15.44;100.00;98016.15;104831;1256;68743;-66
2023/11/06 07:25:24;;;;;;;1.20;1.10;;;;;;;15.51;100.00;98022.21;104503;1271;72521;-66
2023/11/06 07:27:51;;;;;;;3.40;1.40;;;;;;;15.60;100.00;98017.05;104355;1259;61678;-66
2023/11/06 07:30:18;;;;;;;1.90;1.10;;;;;;;15.67;100.00;98018.45;104355;1265;61021;-65
2023/11/06 07:32:45;;;;;;;1.40;1.10;;;;;;;15.75;100.00;98025.44;104447;1265;74510;-66
2023/11/06 07:35:12;;;;;;;1.20;1.10;;;;;;;15.86;100.00;98031.67;105094;1255;69459;-67
2023/11/06 07:37:41;;;;;;;1.30;0.90;;;;;;;15.95;100.00;98025.23;104535;1262;72521;-66
2023/11/06 07:40:09;;;;;;;2.60;0.80;;;;;;;16.03;100.00;98029.09;104410;1258;61739;-65
2023/11/06 07:42:36;;;;;;;;;;;;;;;16.06;100.00;98035.48;108434;1251;60073;-68
2023/11/06 07:45:03;;;;;;;1.30;1.00;;;;;;;16.14;100.00;98036.19;108364;1253;73667;-67
2023/11/06 07:47:30;;;;;;;2.60;0.90;;;;;;;16.26;100.00;98041.80;107950;1256;69730;-68
2023/11/06 07:49:57;;;;;;;1.50;1.10;;;;;;;16.32;100.00;98045.89;108435;1252;72405;-68
2023/11/06 07:52:24;;;;;;;1.00;0.90;;;;;;;16.38;100.00;98050.10;108418;1251;62548;-68
2023/11/06 07:54:51;;;;;;;1.00;0.90;;;;;;;16.42;100.00;98058.95;106963;1253;60560;-68
2023/11/06 07:57:18;;;;;;;1.30;0.90;;;;;;;16.41;100.00;98059.36;104378;1258;74404;-67
2023/11/06 07:59:45;;;;;;;0.90;0.80;;;;;;;16.41;100.00;98056.02;104551;1257;69226;-67
2023/11/06 08:02:12;;;;;;;1.60;0.80;;;;;;;16.45;100.00;98064.84;104485;1268;71762;-68
2023/11/06 08:04:39;;;;;;;1.80;0.80;;;;;;;16.44;100.00;98065.33;104743;1257;61705;-67
2023/11/06 08:07:06;;;;;;;1.20;0.90;;;;;;;16.46;100.00;98070.45;104612;1257;60324;-68
2023/11/06 08:09:34;;;;;;;1.20;0.90;;;;;;;16.46;100.00;98073.05;104299;1272;72269;-68
2023/11/06 08:12:01;;;;;;;1.30;0.90;;;;;;;16.48;100.00;98075.73;108368;1253;69409;-68
2023/11/06 08:14:28;;;;;;;5.60;0.90;;;;;;;16.45;100.00;98078.84;105757;1255;72498;-68
2023/11/06 08:16:56;;;;;;;4.20;1.00;;;;;;;16.47;100.00;98082.88;104612;1253;61730;-68
2023/11/06 08:19:23;;;;;;;;;;;;;;;16.54;100.00;98085.39;104757;1256;60560;-68
2023/11/06 08:21:49;;;;;;;2.00;1.30;;;;;;;16.61;100.00;98088.34;104565;1258;73523;-67
2023/11/06 08:24:17;;;;;;;1.90;1.00;;;;;;;16.62;100.00;98097.19;105256;1256;70128;-67
2023/11/06 08:26:44;;;;;;;2.30;0.80;;;;;;;16.65;100.00;98099.45;104574;1252;72075;-67
2023/11/06 08:29:11;;;;;;;0.80;0.80;;;;;;;16.68;100.00;98098.30;104412;1263;61620;-67
2023/11/06 08:31:38;;;;;;;3.40;0.90;;;;;;;16.74;100.00;98096.86;104331;1269;60689;-67
2023/11/06 08:34:05;;;;;;;1.30;0.90;;;;;;;16.84;100.00;98096.09;104324;1258;74362;-67
2023/11/06 08:36:32;;;;;;;0.80;0.80;;;;;;;16.85;100.00;98096.20;104648;1256;68156;-64
2023/11/06 08:38:59;;;;;;;1.20;1.00;;;;;;;16.85;100.00;98102.95;104938;1258;72992;-68
2023/11/06 08:41:26;;;;;;;0.80;0.80;;;;;;;16.80;100.00;98106.54;104601;1264;61943;-66
2023/11/06 08:43:54;;;;;;;0.80;0.80;;;;;;;16.84;100.00;98107.45;104603;1254;60530;-68
2023/11/06 08:46:21;;;;;;;1.10;0.90;;;;;;;16.87;100.00;98117.60;104931;1256;73691;-67
2023/11/06 08:48:47;;;;;;;0.80;0.80;;;;;;;16.84;100.00;98117.91;104772;1256;69349;-66
2023/11/06 08:51:15;;;;;;;;;;;;;;;16.95;100.00;98122.56;104624;1256;72713;-66
2023/11/06 08:53:42;;;;;;;0.90;0.90;;;;;;;16.95;99.73;98124.16;104298;1256;61020;-67
2023/11/06 08:56:10;;;;;;;3.30;0.90;;;;;;;16.94;99.64;98127.27;104577;1259;60335;-66
2023/11/06 08:58:38;;;;;;;2.80;1.30;;;;;;;16.97;99.84;98125.77;104658;1255;74244;-67
2023/11/06 09:01:06;;;;;;;0.80;0.80;;;;;;;16.96;99.45;98123.71;104657;1258;69766;-67
2023/11/06 09:03:32;;;;;;;1.00;1.00;;;;;;;17.02;99.72;98117.42;104522;1269;72933;-68
2023/11/06 09:05:59;;;;;;;1.90;1.20;;;;;;;17.10;98.78;98119.91;104520;1263;61791;-69
2023/11/06 09:08:26;;;;;;;1.40;1.30;;;;;;;17.20;100.00;98117.41;104309;1271;60548;-69
2023/11/06 09:10:53;;;;;;;1.00;0.70;;;;;;;17.27;97.97;98123.81;107467;1251;74131;-69
2023/11/06 09:13:20;;;;;;;1.20;1.00;;;;;;;17.32;97.45;98112.33;108422;1253;69398;-69
2023/11/06 09:15:48;;;;;;;3.30;1.20;;;;;;;17.39;98.72;98115.11;108440;1253;72906;-65
2023/11/06 09:18:19;;;;;;;0.60;0.60;;;;;;;17.42;98.46;98117.77;107558;1254;61865;-68
2023/11/06 09:20:51;;;;;;;1.00;0.90;;;;;;;17.58;99.38;98112.33;108292;1253;60202;-68
2023/11/06 09:23:21;;;;;;;0.80;0.80;;;;;;;17.74;99.89;98115.60;108407;1253;73708;-68
2023/11/06 09:25:48;;;;;;;1.10;1.00;;;;;;;17.89;98.39;98124.80;106442;1255;70095;-68
2023/11/06 09:28:15;;;;;;;0.90;0.70;;;;;;;17.99;95.92;98123.70;104361;1269;72772;-68
2023/11/06 09:30:44;;;;;;;1.30;1.00;;;;;;;18.09;93.88;98129.25;104654;1253;61489;-68
2023/11/06 09:33:11;;;;;;;1.00;0.90;;;;;;;18.12;89.99;98133.79;104823;1265;60531;-67
2023/11/06 09:35:38;;;;;;;1.20;0.90;;;;;;;18.23;90.60;98131.23;104650;1266;74733;-66
2023/11/06 09:38:05;;;;;;;1.10;0.80;;;;;;;18.40;90.09;98133.82;104819;1258;70012;-67
2023/11/06 09:40:35;;;;;;;1.00;0.90;;;;;;;18.46;84.74;98136.83;105784;1255;72604;-68
2023/11/06 09:43:02;;;;;;;1.70;0.90;;;;;;;18.49;82.89;98138.46;106523;1252;61592;-68
2023/11/06 09:45:29;;;;;;;0.90;0.60;;;;;;;18.53;82.59;98139.83;108361;1252;60013;-68
2023/11/06 09:47:56;;;;;;;1.70;1.20;;;;;;;18.60;82.32;98138.73;108390;1252;74491;-67
2023/11/06 09:50:23;;;;;;;1.10;0.80;;;;;;;18.73;81.59;98139.29;108168;1253;69618;-68
2023/11/06 09:52:53;;;;;;;1.00;1.00;;;;;;;18.90;82.11;98138.79;108385;1251;71650;-69
2023/11/06 09:55:20;;;;;;;1.40;1.10;;;;;;;19.02;79.53;98147.13;107626;1255;60805;-68
2023/11/06 09:57:51;;;;;;;1.00;1.00;;;;;;;19.17;78.34;98145.90;106729;1252;61051;-68
2023/11/06 10:00:20;;;;;;;1.10;1.00;;;;;;;19.21;76.17;98149.65;104778;1265;74078;-68
2023/11/06 10:02:53;;;;;;;2.00;0.90;;;;;;;19.16;75.00;98153.11;104771;1256;69722;-70
2023/11/06 10:05:20;;;;;;;1.20;1.10;;;;;;;19.08;75.12;98162.78;104902;1257;72546;-70
2023/11/06 10:07:54;;;;;;;0.80;0.80;;;;;;;18.86;75.13;98169.91;104814;1254;62367;-69
2023/11/06 10:10:22;;;;;;;1.30;0.90;;;;;;;18.64;77.20;98167.59;105466;1253;60579;-69
2023/11/06 10:13:06;;;;;;;0.80;0.80;;;;;;;18.45;77.86;98175.23;108378;1254;73865;-69
2023/11/06 10:15:34;;;;;;;0.70;0.70;;;;;;;18.38;79.17;98169.84;106207;1251;70422;-66
2023/11/06 10:18:14;;;;;;;1.10;0.80;;;;;;;18.28;79.32;98177.03;105102;1268;72265;-69
2023/11/06 10:20:47;;;;;;;1.30;0.90;;;;;;;18.25;80.62;98176.11;105299;1257;61622;-69
2023/11/06 10:23:37;;;;;;;1.30;0.80;;;;;;;18.21;81.45;98185.40;104648;1258;60473;-70
2023/11/06 10:26:11;;;;;;;0.80;0.80;;;;;;;18.08;82.29;98195.99;105477;1254;74456;-69
2023/11/06 10:28:39;;;;;;;1.10;1.00;;;;;;;18.01;82.89;98202.20;104720;1257;69901;-71
2023/11/06 10:31:07;;;;;;;0.80;0.80;;;;;;;17.93;82.39;98208.84;104731;1257;72546;-69
2023/11/06 10:33:34;;;;;;;1.10;1.00;;;;;;;17.83;82.56;98211.27;104729;1259;61928;-69
2023/11/06 10:36:24;;;;;;;1.30;0.80;;;;;;;17.78;83.50;98209.98;104238;1261;60125;-69
2023/11/06 10:38:52;;;;;;;1.30;1.20;;;;;;;17.75;84.59;98209.25;104383;1253;73852;-69
2023/11/06 10:41:25;;;;;;;0.70;0.70;;;;;;;17.72;84.67;98203.89;104806;1256;69467;-69
2023/11/06 10:44:01;;;;;;;1.00;0.90;;;;;;;17.77;85.73;98207.45;104776;1253;72524;-68
2023/11/06 10:46:32;;;;;;;2.10;0.70;;;;;;;17.79;86.45;98209.43;104743;1257;61995;-68
2023/11/06 10:49:07;;;;;;;0.90;0.90;;;;;;;17.82;86.22;98218.31;104903;1256;62009;-69
2023/11/06 10:51:34;;;;;;;1.30;0.90;;;;;;;17.76;85.78;98222.12;104681;1256;73707;-69
2023/11/06 10:54:01;;;;;;;0.90;0.80;;;;;;;17.72;86.27;98222.46;104480;1261;69573;-68
2023/11/06 10:56:30;;;;;;;3.30;0.90;;;;;;;17.70;86.22;98223.57;104635;1256;72909;-68
2023/11/06 10:58:59;;;;;;;1.10;0.90;;;;;;;17.84;86.90;98228.11;104438;1256;62644;-67
2023/11/06 11:01:29;;;;;;;2.00;0.90;;;;;;;18.04;86.14;98222.25;104798;1253;60550;-68
2023/11/06 11:03:56;;;;;;;1.30;1.00;;;;;;;18.31;84.59;98215.71;104667;1256;73874;-68
2023/11/06 11:06:24;;;;;;;1.30;1.20;;;;;;;18.53;81.98;98217.90;104560;1262;69876;-68
2023/11/06 11:08:52;;;;;;;1.30;1.00;;;;;;;18.82;80.61;98217.73;104548;1257;72786;-67
2023/11/06 11:11:19;;;;;;;2.40;0.90;;;;;;;19.05;78.51;98225.00;106232;1253;62046;-68
2023/11/06 11:13:48;;;;;;;0.90;0.80;;;;;;;19.19;77.05;98226.66;108408;1253;60204;-68
2023/11/06 11:16:45;;;;;;;1.30;1.00;;;;;;;19.33;76.56;98225.91;108272;1253;74486;-68
2023/11/06 11:19:22;;;;;;;1.40;1.10;;;;;;;19.29;74.72;98238.29;108475;1252;69570;-68
2023/11/06 11:22:08;;;;;;;1.10;0.90;;;;;;;19.23;75.34;98245.81;108283;1253;72935;-69
2023/11/06 11:24:41;;;;;;;1.20;1.10;;;;;;;19.06;75.11;98248.50;107733;1252;60620;-65
2023/11/06 11:27:09;;;;;;;1.30;1.20;;;;;;;18.93;76.57;98257.09;105492;1257;60566;-69